Time;durP1;ratioP1;P1;durP2;ratioP2;P2;SDS_P1;SDS_P2;PMS_P1;PMS_P2;Temp;Humidity;BMP_temperature;BMP_pressure;BME280_temperature;BME280_humidity;BME280_pressure;Samples;Min_cycle;Max_cycle;Signal;HPM_P1;HPM_P2
2021/10/29 00:01:30;;;;;;;25.15;17.45;;;;;;;8.04;100.00;99193.56;5124773;27;20501;-74
2021/10/29 00:03:57;;;;;;;22.45;17.83;;;;;;;8.01;100.00;99191.06;5120905;27;20192;-73
2021/10/29 00:06:23;;;;;;;23.75;18.27;;;;;;;7.88;100.00;99191.69;5106520;27;20299;-73
2021/10/29 00:08:50;;;;;;;24.65;17.88;;;;;;;7.81;100.00;99192.97;5117331;27;20701;-74
2021/10/29 00:11:16;;;;;;;22.40;17.92;;;;;;;7.85;100.00;99188.34;5126969;27;20187;-74
2021/10/29 00:13:43;;;;;;;24.02;17.50;;;;;;;7.78;100.00;99181.53;5123074;27;20592;-74
2021/10/29 00:16:10;;;;;;;23.80;18.10;;;;;;;7.77;100.00;99187.88;5120606;27;20223;-74
2021/10/29 00:18:38;;;;;;;23.45;17.15;;;;;;;7.91;100.00;99185.31;5118404;27;20192;-74
2021/10/29 00:21:04;;;;;;;23.88;16.77;;;;;;;7.89;100.00;99179.16;5129474;27;20193;-74
2021/10/29 00:23:31;;;;;;;25.25;17.48;;;;;;;7.85;100.00;99188.34;5126663;27;20706;-74
2021/10/29 00:25:58;;;;;;;23.85;16.80;;;;;;;8.03;100.00;99183.81;5124665;27;20230;-73
2021/10/29 00:28:25;;;;;;;20.55;16.15;;;;;;;8.01;100.00;99191.91;5118240;27;20197;-73
2021/10/29 00:30:52;;;;;;;19.80;15.38;;;;;;;8.17;100.00;99178.53;5125047;27;20350;-73
2021/10/29 00:33:19;;;;;;;23.40;16.92;;;;;;;8.12;100.00;99175.25;5126573;27;20187;-73
2021/10/29 00:35:47;;;;;;;22.17;16.35;;;;;;;8.18;100.00;99174.88;5117724;27;20191;-73
2021/10/29 00:38:14;;;;;;;21.48;17.20;;;;;;;7.92;100.00;99176.31;5114092;27;20186;-73
2021/10/29 00:40:40;;;;;;;19.55;15.60;;;;;;;7.79;100.00;99177.94;5118247;27;20187;-73
2021/10/29 00:43:07;;;;;;;21.52;16.23;;;;;;;7.75;100.00;99195.97;5116908;27;20215;-73
2021/10/29 00:45:34;;;;;;;26.77;18.35;;;;;;;7.88;100.00;99191.69;5125139;27;20293;-73
2021/10/29 00:48:01;;;;;;;21.92;16.95;;;;;;;7.95;100.00;99186.88;5125136;27;20199;-72
2021/10/29 00:50:28;;;;;;;22.58;17.15;;;;;;;7.98;100.00;99180.47;5125247;27;20291;-73
2021/10/29 00:52:56;;;;;;;19.95;16.40;;;;;;;7.88;100.00;99185.47;5123143;27;20232;-73
2021/10/29 00:55:23;;;;;;;19.13;15.90;;;;;;;7.80;100.00;99171.59;5116309;27;20202;-74
2021/10/29 00:57:51;;;;;;;24.23;17.70;;;;;;;7.77;100.00;99191.41;5130230;27;20197;-73
2021/10/29 01:00:19;;;;;;;22.55;16.77;;;;;;;7.74;100.00;99178.19;5125650;27;20198;-73
2021/10/29 01:02:46;;;;;;;21.25;16.80;;;;;;;7.80;100.00;99177.84;5123635;27;20192;-74
2021/10/29 01:05:12;;;;;;;24.13;16.80;;;;;;;7.79;100.00;99183.28;5121436;27;20231;-73
2021/10/29 01:07:39;;;;;;;24.17;17.42;;;;;;;7.81;100.00;99182.25;5117615;27;20187;-73
2021/10/29 01:10:08;;;;;;;23.98;17.92;;;;;;;7.71;100.00;99179.22;5125548;27;20527;-73
2021/10/29 01:12:35;;;;;;;24.80;18.17;;;;;;;7.89;100.00;99179.16;5115630;27;20200;-73
2021/10/29 01:15:03;;;;;;;20.73;17.02;;;;;;;7.93;100.00;99178.91;5126688;27;20538;-73
2021/10/29 01:17:30;;;;;;;24.10;17.77;;;;;;;7.89;100.00;99180.03;5120270;27;20280;-72
2021/10/29 01:19:58;;;;;;;22.50;17.13;;;;;;;7.82;100.00;99172.41;5115735;27;20640;-75
2021/10/29 01:22:27;;;;;;;22.63;16.65;;;;;;;7.86;100.00;99179.34;5111378;27;20315;-73
2021/10/29 01:24:54;;;;;;;23.05;16.25;;;;;;;7.88;100.00;99172.94;5112940;27;20218;-72
2021/10/29 01:27:21;;;;;;;23.85;16.80;;;;;;;7.87;100.00;99167.69;5110272;27;20195;-72
2021/10/29 01:29:49;;;;;;;21.83;17.48;;;;;;;8.03;100.00;99160.53;5119316;27;20198;-73
2021/10/29 01:32:15;;;;;;;25.45;17.98;;;;;;;7.96;100.00;99159.13;5118730;27;20193;-73
2021/10/29 01:34:43;;;;;;;23.70;17.70;;;;;;;7.97;100.00;99157.31;5122663;27;20284;-73
2021/10/29 01:37:12;;;;;;;23.92;18.50;;;;;;;7.92;100.00;99166.47;5125966;27;20191;-73
2021/10/29 01:39:40;;;;;;;21.88;16.42;;;;;;;7.97;100.00;99152.81;5120513;27;20264;-73
2021/10/29 01:42:08;;;;;;;21.17;16.35;;;;;;;8.01;100.00;99158.88;5122407;27;20295;-73
2021/10/29 01:44:35;;;;;;;21.23;17.40;;;;;;;7.87;100.00;99156.97;5126296;27;20216;-73
2021/10/29 01:47:02;;;;;;;22.00;17.20;;;;;;;7.84;100.00;99166.00;5124807;27;20221;-73
2021/10/29 01:49:29;;;;;;;20.50;15.60;;;;;;;8.02;100.00;99157.91;5114254;27;20226;-73
2021/10/29 01:51:55;;;;;;;20.38;15.85;;;;;;;8.00;100.00;99160.69;5128290;27;20627;-73
2021/10/29 01:54:22;;;;;;;19.23;15.02;;;;;;;7.96;100.00;99159.13;5118915;28;20222;-73
2021/10/29 01:56:50;;;;;;;21.13;15.77;;;;;;;7.95;100.00;99154.69;5120583;27;20189;-73
2021/10/29 01:59:17;;;;;;;19.15;14.77;;;;;;;7.84;100.00;99159.78;5121313;27;20181;-73
2021/10/29 02:01:43;;;;;;;19.08;14.88;;;;;;;8.01;100.00;99161.56;5112471;27;20615;-73
2021/10/29 02:04:10;;;;;;;19.10;14.65;;;;;;;8.04;100.00;99156.88;5115437;28;20291;-73
2021/10/29 02:06:37;;;;;;;22.55;14.98;;;;;;;8.04;100.00;99146.16;5120893;28;20679;-73
2021/10/29 02:09:04;;;;;;;18.52;14.45;;;;;;;8.10;100.00;99148.50;5116803;28;20274;-73
2021/10/29 02:11:31;;;;;;;23.30;15.63;;;;;;;8.08;100.00;99146.88;5111096;28;20188;-73
2021/10/29 02:13:59;;;;;;;21.02;16.05;;;;;;;7.88;100.00;99147.94;5118878;28;20195;-73
2021/10/29 02:16:26;;;;;;;17.92;13.95;;;;;;;7.96;100.00;99155.56;5119350;28;20279;-73
2021/10/29 02:18:52;;;;;;;21.20;16.52;;;;;;;8.01;100.00;99140.97;5119334;28;20206;-73
2021/10/29 02:21:19;;;;;;;18.23;14.20;;;;;;;8.02;100.00;99140.00;5122780;28;20191;-73
2021/10/29 02:23:46;;;;;;;19.80;14.40;;;;;;;8.02;100.00;99134.66;5123900;28;20187;-73
2021/10/29 02:26:12;;;;;;;23.50;15.13;;;;;;;7.97;100.00;99131.38;5123828;28;20664;-73
2021/10/29 02:28:39;;;;;;;21.73;15.63;;;;;;;7.82;100.00;99132.19;5128048;28;20180;-73
2021/10/29 02:31:07;;;;;;;20.63;14.93;;;;;;;7.84;100.00;99131.16;5125436;28;20557;-72
2021/10/29 02:33:33;;;;;;;20.90;14.85;;;;;;;7.89;100.00;99130.91;5129294;28;20206;-72
2021/10/29 02:36:00;;;;;;;23.90;15.50;;;;;;;7.78;100.00;99128.81;5124452;28;20625;-73
2021/10/29 02:38:27;;;;;;;25.23;15.82;;;;;;;7.81;100.00;99119.75;5128426;27;20579;-72
2021/10/29 02:40:53;;;;;;;18.75;14.40;;;;;;;7.72;100.00;99119.28;5123789;28;20192;-73
2021/10/29 02:43:21;;;;;;;20.25;15.10;;;;;;;7.80;100.00;99120.69;5115796;28;20276;-73
2021/10/29 02:45:47;;;;;;;20.20;14.90;;;;;;;7.83;100.00;99109.81;5124070;28;20227;-72
2021/10/29 02:48:15;;;;;;;18.70;14.90;;;;;;;7.91;100.00;99118.28;5124063;28;20187;-72
2021/10/29 02:50:42;;;;;;;22.05;15.23;;;;;;;7.78;100.00;99111.84;5120590;28;20190;-72
2021/10/29 02:53:09;;;;;;;19.33;14.65;;;;;;;7.49;100.00;99114.31;5123831;27;20189;-73
2021/10/29 02:55:36;;;;;;;23.00;15.32;;;;;;;7.65;100.00;99109.84;5128007;27;20617;-74
2021/10/29 02:58:03;;;;;;;23.98;14.65;;;;;;;7.64;100.00;99110.81;5120128;27;20554;-74
2021/10/29 03:00:30;;;;;;;29.25;15.65;;;;;;;7.57;100.00;99109.41;5127433;27;20205;-73
2021/10/29 03:02:57;;;;;;;19.90;14.52;;;;;;;7.60;100.00;99103.88;5127300;27;20187;-74
2021/10/29 03:05:26;;;;;;;20.67;14.57;;;;;;;7.64;100.00;99107.25;5126288;27;20227;-72
2021/10/29 03:07:52;;;;;;;19.75;14.70;;;;;;;7.64;100.00;99104.56;5127352;27;20277;-75
2021/10/29 03:10:19;;;;;;;18.40;14.70;;;;;;;7.67;100.00;99096.38;5126795;27;20193;-74
2021/10/29 03:12:46;;;;;;;26.20;13.43;;;;;;;7.61;100.00;99094.03;5132631;27;20209;-74
2021/10/29 03:15:13;;;;;;;21.42;15.20;;;;;;;7.53;100.00;99099.81;5117438;27;20199;-73
2021/10/29 03:17:40;;;;;;;18.67;14.45;;;;;;;7.57;100.00;99096.00;5115855;28;20610;-73
2021/10/29 03:20:09;;;;;;;21.38;14.82;;;;;;;7.69;100.00;99095.34;5117013;27;20553;-74
2021/10/29 03:22:37;;;;;;;21.48;14.35;;;;;;;7.53;100.00;99086.41;5109031;27;20205;-73
2021/10/29 03:25:05;;;;;;;18.85;14.85;;;;;;;7.59;100.00;99096.78;5108432;27;20545;-73
2021/10/29 03:27:31;;;;;;;23.40;15.30;;;;;;;7.55;100.00;99087.16;5112737;27;20287;-73
2021/10/29 03:29:58;;;;;;;23.00;15.82;;;;;;;7.74;100.00;99079.03;5123711;27;20201;-73
2021/10/29 03:32:25;;;;;;;19.33;14.30;;;;;;;7.79;100.00;99079.63;5118678;27;20203;-74
2021/10/29 03:34:52;;;;;;;19.20;13.50;;;;;;;7.89;100.00;99085.34;5123246;27;20183;-74
2021/10/29 03:37:33;;;;;;;16.80;13.70;;;;;;;7.78;100.00;99085.06;5126386;27;20191;-73
2021/10/29 03:40:09;;;;;;;18.38;13.70;;;;;;;7.81;100.00;99084.91;5110988;27;20189;-74
2021/10/29 03:42:41;;;;;;;20.17;14.93;;;;;;;7.68;100.00;99074.84;5123062;27;20219;-75
2021/10/29 03:45:11;;;;;;;17.70;13.30;;;;;;;7.76;100.00;99071.78;5116973;27;20186;-74
2021/10/29 03:47:43;;;;;;;19.90;14.13;;;;;;;7.60;100.00;99065.50;5126853;27;20210;-74
2021/10/29 03:50:17;;;;;;;21.60;14.70;;;;;;;7.43;100.00;99069.09;5110590;27;20638;-75
2021/10/29 03:52:51;;;;;;;19.63;14.20;;;;;;;7.51;100.00;99072.25;5114768;27;20195;-74
2021/10/29 03:55:19;;;;;;;22.25;14.43;;;;;;;7.53;100.00;99062.31;5119188;27;20188;-73
2021/10/29 03:57:46;;;;;;;17.67;14.07;;;;;;;7.46;100.00;99074.28;5104487;27;20276;-72
2021/10/29 04:00:13;;;;;;;19.15;14.70;;;;;;;7.43;100.00;99075.31;5122608;27;20596;-72
2021/10/29 04:02:40;;;;;;;18.67;13.93;;;;;;;7.45;100.00;99059.16;5115363;27;20196;-73
2021/10/29 04:05:07;;;;;;;18.48;14.15;;;;;;;7.47;100.00;99068.00;5116772;27;20314;-73
2021/10/29 04:07:34;;;;;;;19.00;15.45;;;;;;;7.36;100.00;99056.97;5117515;27;20664;-74
2021/10/29 04:10:00;;;;;;;21.02;14.18;;;;;;;7.54;100.00;99061.34;5124222;27;20707;-75
2021/10/29 04:12:28;;;;;;;21.00;16.13;;;;;;;7.57;100.00;99054.94;5126198;27;20271;-73
2021/10/29 04:14:56;;;;;;;19.00;13.68;;;;;;;7.53;100.00;99056.94;5125734;27;20198;-72
2021/10/29 04:17:23;;;;;;;22.10;15.02;;;;;;;7.40;100.00;99047.84;5114683;27;20235;-73
2021/10/29 04:19:49;;;;;;;18.17;12.77;;;;;;;7.21;100.00;99059.53;5112886;27;20688;-72
2021/10/29 04:22:16;;;;;;;23.00;15.50;;;;;;;7.36;100.00;99049.81;5122575;27;20200;-75
2021/10/29 04:24:43;;;;;;;23.27;16.92;;;;;;;7.24;100.00;99050.47;5124792;27;20185;-73
2021/10/29 04:27:18;;;;;;;22.20;15.48;;;;;;;7.18;100.00;99050.78;5125596;27;20213;-74
2021/10/29 04:29:48;;;;;;;21.25;16.17;;;;;;;7.05;100.00;99042.53;5124680;27;20193;-73
2021/10/29 04:32:15;;;;;;;17.40;14.02;;;;;;;7.05;100.00;99047.88;5126439;27;20195;-73
2021/10/29 04:34:41;;;;;;;21.92;15.18;;;;;;;7.02;100.00;99045.38;5130055;27;20244;-74
2021/10/29 04:37:08;;;;;;;18.85;14.70;;;;;;;7.01;100.00;99047.19;5122351;27;20629;-74
2021/10/29 04:39:34;;;;;;;17.13;13.70;;;;;;;7.04;100.00;99046.16;5125716;27;20708;-74
2021/10/29 04:42:01;;;;;;;19.95;15.45;;;;;;;7.00;100.00;99034.75;5122069;27;20187;-74
2021/10/29 04:44:28;;;;;;;20.67;15.15;;;;;;;6.85;100.00;99033.75;5121449;27;20194;-73
2021/10/29 04:46:57;;;;;;;20.10;15.57;;;;;;;6.83;100.00;99035.63;5122086;27;20199;-74
2021/10/29 04:49:23;;;;;;;22.48;14.88;;;;;;;7.08;100.00;99037.91;5121894;27;20200;-73
2021/10/29 04:51:50;;;;;;;19.50;14.52;;;;;;;7.06;100.00;99033.56;5121857;27;20199;-74
2021/10/29 04:54:17;;;;;;;18.65;13.57;;;;;;;7.12;100.00;99027.88;5121666;27;20286;-73
2021/10/29 04:56:47;;;;;;;17.50;13.02;;;;;;;7.09;100.00;99034.25;5121633;27;20183;-74
2021/10/29 04:59:16;;;;;;;18.17;13.70;;;;;;;7.00;100.00;99033.88;5127806;27;20678;-74
2021/10/29 05:01:44;;;;;;;17.73;14.13;;;;;;;7.10;100.00;99019.94;5124379;27;20274;-74
2021/10/29 05:04:12;;;;;;;17.65;14.43;;;;;;;7.12;100.00;99022.53;5121211;27;20195;-73
2021/10/29 05:06:39;;;;;;;16.50;13.20;;;;;;;7.03;100.00;99026.56;5121106;27;20209;-72
2021/10/29 05:09:05;;;;;;;19.73;14.23;;;;;;;7.06;100.00;99018.38;5126946;27;20270;-74
2021/10/29 05:11:32;;;;;;;18.70;15.13;;;;;;;7.07;100.00;99011.19;5121659;27;20277;-74
2021/10/29 05:13:59;;;;;;;17.98;13.68;;;;;;;7.14;100.00;99017.09;5118643;27;20212;-74
2021/10/29 05:16:25;;;;;;;17.17;13.25;;;;;;;7.10;100.00;99019.09;5121618;27;20196;-73
2021/10/29 05:18:52;;;;;;;19.52;14.93;;;;;;;7.16;100.00;99000.00;5126156;27;20191;-74
2021/10/29 05:21:20;;;;;;;16.15;13.25;;;;;;;7.10;100.00;99017.28;5119794;27;20199;-73
2021/10/29 05:23:46;;;;;;;16.10;13.00;;;;;;;7.07;100.00;99009.38;5122157;27;20648;-73
2021/10/29 05:26:13;;;;;;;17.60;13.70;;;;;;;7.24;100.00;99005.81;5120766;27;20179;-74
2021/10/29 05:28:40;;;;;;;19.40;14.50;;;;;;;7.10;100.00;98995.00;5128038;27;20238;-74
2021/10/29 05:31:07;;;;;;;19.02;13.35;;;;;;;7.21;100.00;98991.72;5127362;27;20289;-73
2021/10/29 05:33:34;;;;;;;17.83;12.82;;;;;;;7.22;100.00;98991.63;5121679;27;20192;-74
2021/10/29 05:36:01;;;;;;;21.70;14.65;;;;;;;7.39;100.00;98992.53;5108774;27;20203;-72
2021/10/29 05:38:29;;;;;;;17.73;12.98;;;;;;;7.27;100.00;98986.03;5116227;27;20183;-73
2021/10/29 05:40:58;;;;;;;17.73;13.85;;;;;;;7.35;100.00;98974.91;5124308;27;20215;-73
2021/10/29 05:43:25;;;;;;;16.83;14.70;;;;;;;7.56;100.00;98978.22;5122488;27;20256;-73
2021/10/29 05:45:51;;;;;;;17.23;11.82;;;;;;;7.50;100.00;98977.59;5117512;27;20514;-73
2021/10/29 05:48:18;;;;;;;16.13;11.77;;;;;;;7.55;100.00;98966.63;5123761;27;20538;-73
2021/10/29 05:50:48;;;;;;;18.35;12.55;;;;;;;7.38;100.00;98972.06;5116839;27;20197;-74
2021/10/29 05:53:21;;;;;;;15.55;12.95;;;;;;;7.40;100.00;98967.50;5125261;27;20647;-74
2021/10/29 05:55:49;;;;;;;17.00;13.65;;;;;;;7.35;100.00;98967.75;5118742;27;20279;-73
2021/10/29 05:58:16;;;;;;;28.25;14.07;;;;;;;7.35;100.00;98954.34;5123760;27;20187;-75
2021/10/29 06:00:42;;;;;;;15.40;12.43;;;;;;;7.39;100.00;98957.72;5120728;27;20283;-72
2021/10/29 06:03:09;;;;;;;17.08;12.70;;;;;;;7.38;100.00;98958.69;5114459;27;20238;-72
2021/10/29 06:05:36;;;;;;;16.00;13.27;;;;;;;7.45;100.00;98955.56;5115631;28;20280;-73
2021/10/29 06:08:03;;;;;;;16.80;11.93;;;;;;;7.28;100.00;98956.50;5119499;28;20221;-71
2021/10/29 06:10:30;;;;;;;16.85;12.07;;;;;;;7.19;100.00;98950.75;5126195;28;20200;-72
2021/10/29 06:12:58;;;;;;;14.65;11.60;;;;;;;7.20;100.00;98956.06;5118092;28;20273;-72
2021/10/29 06:15:25;;;;;;;13.60;11.30;;;;;;;7.03;100.00;98961.44;5115252;28;20282;-73
2021/10/29 06:17:52;;;;;;;22.08;12.40;;;;;;;7.09;100.00;98956.63;5116198;28;20278;-72
2021/10/29 06:20:20;;;;;;;17.13;11.82;;;;;;;7.14;100.00;98964.41;5124954;28;20467;-73
2021/10/29 06:22:48;;;;;;;15.57;12.50;;;;;;;7.04;100.00;98963.19;5119492;28;20190;-73
2021/10/29 06:25:18;;;;;;;19.35;14.43;;;;;;;7.15;100.00;98967.97;5116969;28;20195;-74
2021/10/29 06:30:31;;;;;;;15.32;11.93;;;;;;;6.96;100.00;98965.41;5112395;27;20297;-73
2021/10/29 06:32:59;;;;;;;19.45;14.88;;;;;;;7.10;100.00;98966.41;5124257;27;20191;-72
2021/10/29 06:35:25;;;;;;;15.43;10.88;;;;;;;7.08;100.00;98967.44;5128491;27;20274;-72
2021/10/29 06:37:52;;;;;;;15.93;12.18;;;;;;;7.02;100.00;98962.41;5129734;27;20227;-71
2021/10/29 06:40:19;;;;;;;18.77;12.70;;;;;;;7.08;100.00;98954.06;5127194;27;20189;-72
2021/10/29 06:42:50;;;;;;;17.55;12.73;;;;;;;7.03;100.00;98965.00;5129663;27;20595;-72
2021/10/29 06:45:35;;;;;;;14.43;12.00;;;;;;;7.12;100.00;98970.78;5126899;27;20191;-71
2021/10/29 06:48:16;;;;;;;16.98;12.32;;;;;;;6.99;100.00;98965.25;5134158;27;20675;-72
2021/10/29 07:01:43;;;;;;;18.63;13.48;;;;;;;6.86;100.00;98986.44;5126758;27;20206;-73
2021/10/29 07:13:14;;;;;;;16.52;12.57;;;;;;;6.83;100.00;98997.31;5126996;27;20194;-74
2021/10/29 07:40:05;;;;;;;12.70;10.60;;;;;;;7.26;100.00;98997.72;5135006;27;20283;-72
2021/10/29 07:42:37;;;;;;;20.00;11.90;;;;;;;7.16;100.00;99002.66;5135501;27;20179;-73
2021/10/29 07:45:04;;;;;;;16.80;12.75;;;;;;;7.12;100.00;98995.75;5115114;27;20248;-73
2021/10/29 07:47:31;;;;;;;14.90;11.75;;;;;;;7.28;100.00;98995.78;5114385;28;20242;-74
2021/10/29 07:49:58;;;;;;;16.30;13.82;;;;;;;7.48;100.00;98992.03;5113913;28;20213;-73
2021/10/29 07:52:26;;;;;;;18.80;13.05;;;;;;;7.51;100.00;98998.09;5115770;27;20196;-71
2021/10/29 07:54:52;;;;;;;17.10;12.82;;;;;;;7.70;100.00;99000.59;5114347;28;20201;-74
2021/10/29 07:57:19;;;;;;;15.43;12.25;;;;;;;7.66;100.00;98999.03;5114481;27;20266;-72
2021/10/29 07:59:47;;;;;;;15.52;11.93;;;;;;;7.68;100.00;98999.81;5127201;27;20253;-73
2021/10/29 08:02:15;;;;;;;22.42;17.58;;;;;;;7.65;100.00;99005.34;5114452;27;20274;-75
2021/10/29 08:04:42;;;;;;;18.00;13.13;;;;;;;7.63;100.00;99006.41;5113831;28;20284;-72
2021/10/29 08:07:08;;;;;;;15.50;12.45;;;;;;;7.68;100.00;99002.50;5114147;28;20207;-72
2021/10/29 08:09:37;;;;;;;17.13;13.05;;;;;;;7.50;100.00;99009.72;5113837;27;20219;-74
2021/10/29 08:12:04;;;;;;;15.57;13.45;;;;;;;7.48;100.00;99010.78;5114095;28;20203;-74
2021/10/29 08:14:31;;;;;;;16.65;12.70;;;;;;;7.46;100.00;99005.53;5114147;28;20192;-74
2021/10/29 08:16:57;;;;;;;16.92;12.75;;;;;;;7.54;100.00;99007.78;5114559;27;20191;-72
2021/10/29 08:19:28;;;;;;;17.13;13.52;;;;;;;7.64;100.00;99003.66;5123028;27;20190;-72
2021/10/29 08:21:54;;;;;;;17.83;13.25;;;;;;;7.74;100.00;98998.63;5119209;27;20219;-74
2021/10/29 08:24:22;;;;;;;15.50;12.30;;;;;;;7.91;100.00;98998.53;5113821;28;20238;-73
2021/10/29 08:26:51;;;;;;;15.10;12.75;;;;;;;8.17;100.00;98995.31;5114370;27;20297;-73
2021/10/29 08:29:18;;;;;;;18.33;13.80;;;;;;;8.35;100.00;98999.63;5113463;28;20199;-73
2021/10/29 08:31:45;;;;;;;15.73;12.35;;;;;;;8.52;100.00;99004.91;5121974;27;20189;-72
2021/10/29 08:34:12;;;;;;;14.75;11.40;;;;;;;8.48;100.00;99002.44;5131862;27;20193;-73
2021/10/29 08:36:40;;;;;;;16.80;12.88;;;;;;;8.52;100.00;99002.22;5131916;27;20205;-73
2021/10/29 08:39:07;;;;;;;15.85;12.15;;;;;;;8.45;100.00;99000.81;5113780;28;20236;-72
2021/10/29 08:41:35;;;;;;;15.15;12.07;;;;;;;8.58;100.00;98992.91;5113938;28;20611;-73
2021/10/29 08:44:05;;;;;;;13.75;12.13;;;;;;;8.78;100.00;98997.09;5113304;27;20238;-73
2021/10/29 08:46:33;;;;;;;16.98;12.60;;;;;;;8.94;100.00;98991.66;5114450;27;20180;-73
2021/10/29 08:49:01;;;;;;;13.55;11.57;;;;;;;9.21;100.00;98988.22;5121702;27;20215;-75
2021/10/29 08:51:28;;;;;;;13.13;11.18;;;;;;;9.39;100.00;98971.81;5127908;27;20248;-73
2021/10/29 08:53:56;;;;;;;13.55;11.15;;;;;;;9.48;99.90;98986.50;5133450;27;20236;-74
2021/10/29 08:56:23;;;;;;;13.27;11.82;;;;;;;9.56;98.81;98972.56;5133391;27;20261;-73
2021/10/29 08:59:10;;;;;;;15.82;12.88;;;;;;;9.69;99.03;98967.25;5124146;27;20228;-73
2021/10/29 09:01:57;;;;;;;14.50;12.65;;;;;;;9.76;98.68;98966.75;5113836;27;20194;-74
2021/10/29 09:04:47;;;;;;;14.65;12.82;;;;;;;10.01;97.64;98960.63;5111825;27;20224;-74
2021/10/29 09:10:17;;;;;;;15.40;11.15;;;;;;;10.33;95.15;98952.28;5115343;27;20193;-72
2021/10/29 09:32:22;;;;;;;13.63;10.52;;;;;;;11.33;89.80;98926.50;5113232;28;20599;-71
2021/10/29 09:35:05;;;;;;;11.23;10.13;;;;;;;11.57;88.58;98923.00;5121383;27;20190;-73
2021/10/29 09:37:38;;;;;;;10.73;9.60;;;;;;;11.86;86.37;98921.69;5124424;27;20185;-72
2021/10/29 09:40:10;;;;;;;12.40;10.70;;;;;;;11.86;86.27;98924.41;5111742;28;20268;-73
2021/10/29 09:42:39;;;;;;;16.23;13.20;;;;;;;12.00;86.13;98914.47;5112263;28;20261;-73
2021/10/29 09:45:17;;;;;;;20.30;10.90;;;;;;;12.34;85.45;98911.91;5111994;28;20294;-73
2021/10/29 09:47:54;;;;;;;10.18;8.95;;;;;;;12.42;83.33;98915.75;5112210;28;20222;-72
2021/10/29 09:50:27;;;;;;;10.30;9.30;;;;;;;12.36;83.93;98907.25;5112051;28;20183;-73
2021/10/29 09:53:11;;;;;;;11.07;9.82;;;;;;;12.50;83.81;98907.03;5128204;27;20195;-71
2021/10/29 09:58:27;;;;;;;11.23;9.15;;;;;;;12.69;82.17;98907.34;5100794;28;20647;-73
2021/10/29 10:00:54;;;;;;;12.20;9.07;;;;;;;12.84;81.57;98893.63;5127694;27;20213;-73
2021/10/29 10:03:22;;;;;;;10.80;8.02;;;;;;;12.98;80.29;98901.50;5132047;27;20198;-73
2021/10/29 10:05:52;;;;;;;8.82;7.95;;;;;;;13.09;80.08;98893.41;5125512;27;20223;-72
2021/10/29 10:08:21;;;;;;;12.30;9.18;;;;;;;13.31;79.24;98889.84;5111778;28;20313;-72
2021/10/29 10:10:50;;;;;;;13.63;8.27;;;;;;;13.38;79.02;98894.78;5111632;28;20294;-72
2021/10/29 10:13:19;;;;;;;10.95;8.35;;;;;;;13.65;77.91;98900.63;5111560;28;20183;-73
2021/10/29 10:15:48;;;;;;;12.25;9.43;;;;;;;13.82;77.31;98890.28;5111985;28;20218;-73
2021/10/29 10:18:15;;;;;;;11.50;9.60;;;;;;;14.09;75.49;98881.72;5113291;28;20195;-73
2021/10/29 10:20:44;;;;;;;11.68;7.68;;;;;;;14.37;72.26;98885.66;5119741;28;20555;-72
2021/10/29 10:23:16;;;;;;;9.73;6.90;;;;;;;14.74;68.75;98880.69;5127304;28;20231;-72
2021/10/29 10:25:57;;;;;;;6.57;5.85;;;;;;;15.02;67.00;98880.97;5114885;28;20222;-72
2021/10/29 10:42:48;;;;;;;7.90;5.18;;;;;;;16.04;59.12;98868.16;5115728;28;20260;-73
2021/10/29 10:45:34;;;;;;;6.68;4.60;;;;;;;16.08;59.03;98857.88;5117443;28;20187;-72
2021/10/29 10:48:02;;;;;;;5.53;4.65;;;;;;;16.17;58.52;98857.03;5112669;28;20215;-72
2021/10/29 10:50:33;;;;;;;8.07;4.90;;;;;;;16.22;58.79;98843.00;5126637;28;20201;-72
2021/10/29 10:53:25;;;;;;;8.75;7.47;;;;;;;16.21;58.24;98836.72;5095273;28;20218;-72
2021/10/29 10:56:12;;;;;;;5.72;4.65;;;;;;;16.28;58.03;98831.59;5114245;28;20534;-74
2021/10/29 10:58:55;;;;;;;6.70;4.18;;;;;;;16.39;57.63;98827.84;5113862;28;20186;-74
2021/10/29 11:04:25;;;;;;;7.03;5.05;;;;;;;16.48;57.06;98821.53;5104884;28;20697;-73
2021/10/29 11:07:02;;;;;;;4.70;4.20;;;;;;;16.54;57.17;98810.06;5121147;28;20190;-71
2021/10/29 11:09:56;;;;;;;5.10;4.60;;;;;;;16.61;57.10;98813.91;5116190;28;20302;-72
2021/10/29 11:12:23;;;;;;;4.57;4.18;;;;;;;16.58;57.13;98813.38;5112950;27;20274;-72
2021/10/29 11:15:09;;;;;;;4.30;3.90;;;;;;;16.65;56.88;98817.22;5115624;27;20195;-74
2021/10/29 11:17:45;;;;;;;6.78;5.22;;;;;;;16.71;56.54;98816.63;5113776;28;20184;-72
2021/10/29 11:20:13;;;;;;;5.53;4.25;;;;;;;16.77;56.23;98804.28;5119062;27;20198;-72
2021/10/29 11:22:44;;;;;;;5.95;4.00;;;;;;;16.82;56.29;98802.91;5114622;27;20236;-73
2021/10/29 11:25:14;;;;;;;4.93;4.28;;;;;;;16.82;56.20;98807.47;5121108;27;20528;-73
2021/10/29 11:27:42;;;;;;;10.43;5.93;;;;;;;16.75;56.51;98798.16;5114244;27;20601;-74
2021/10/29 11:30:10;;;;;;;6.97;4.45;;;;;;;16.88;56.27;98801.44;5117955;27;20314;-74
2021/10/29 11:32:38;;;;;;;7.75;4.50;;;;;;;16.81;56.52;98790.28;5119952;27;20289;-73
2021/10/29 11:35:06;;;;;;;5.40;4.88;;;;;;;17.02;56.20;98792.78;5123755;27;20673;-72
2021/10/29 11:37:36;;;;;;;3.80;3.40;;;;;;;17.11;55.59;98787.44;5119965;27;20352;-73
2021/10/29 11:40:03;;;;;;;5.75;3.95;;;;;;;17.17;55.36;98792.31;5113835;28;20536;-74
2021/10/29 11:42:32;;;;;;;5.57;4.20;;;;;;;17.19;55.12;98788.41;5120980;27;20182;-73
2021/10/29 11:45:03;;;;;;;5.20;4.63;;;;;;;17.07;55.43;98778.72;5122988;27;20273;-73
2021/10/29 11:47:30;;;;;;;5.13;3.92;;;;;;;16.93;55.67;98776.50;5113890;28;20629;-72
2021/10/29 11:50:06;;;;;;;4.65;4.13;;;;;;;16.71;55.95;98778.59;5113514;27;20207;-74
2021/10/29 11:52:33;;;;;;;5.97;5.35;;;;;;;16.69;56.28;98769.72;5113517;28;20266;-74
2021/10/29 11:55:02;;;;;;;6.13;5.18;;;;;;;16.70;56.43;98765.97;5114715;27;20183;-74
2021/10/29 11:57:36;;;;;;;5.32;4.47;;;;;;;16.74;56.14;98761.97;5113854;27;20184;-74
2021/10/29 12:08:21;;;;;;;7.05;4.35;;;;;;;16.98;55.69;98747.00;5119584;27;20221;-73
2021/10/29 12:10:50;;;;;;;5.03;4.47;;;;;;;17.01;55.79;98746.72;5118002;27;20195;-73
2021/10/29 12:13:16;;;;;;;6.32;4.45;;;;;;;17.12;55.42;98740.19;5116948;27;20248;-74
2021/10/29 12:15:45;;;;;;;11.05;5.97;;;;;;;17.19;55.54;98736.75;5126558;27;20198;-73
2021/10/29 12:18:14;;;;;;;4.78;4.15;;;;;;;17.18;55.31;98736.88;5112609;27;20232;-73
2021/10/29 12:20:44;;;;;;;6.60;5.28;;;;;;;17.14;55.90;98741.78;5127463;27;20211;-74
2021/10/29 12:23:19;;;;;;;9.25;5.43;;;;;;;17.21;56.08;98740.16;5113642;28;20202;-73
2021/10/29 12:25:54;;;;;;;7.55;5.28;;;;;;;17.25;55.32;98727.09;5113587;28;20694;-73
2021/10/29 12:28:26;;;;;;;7.75;5.03;;;;;;;17.18;55.73;98729.56;5112871;28;20198;-74
2021/10/29 12:30:57;;;;;;;8.73;5.22;;;;;;;17.20;55.81;98724.84;5118167;27;20191;-74
2021/10/29 13:01:28;;;;;;;8.15;4.65;;;;;;;18.39;52.86;98691.03;5112325;28;20675;-73
2021/10/29 13:03:58;;;;;;;5.55;4.30;;;;;;;18.61;52.04;98692.31;5112592;27;20206;-75
2021/10/29 13:06:32;;;;;;;5.65;4.93;;;;;;;18.72;51.97;98695.63;5132535;27;20363;-73
2021/10/29 13:09:01;;;;;;;6.72;4.32;;;;;;;18.79;51.43;98684.97;5132762;27;20618;-74
2021/10/29 13:11:36;;;;;;;5.38;4.15;;;;;;;18.83;51.21;98683.59;5113680;27;20677;-73
2021/10/29 13:14:05;;;;;;;4.90;4.40;;;;;;;18.86;51.41;98679.69;5111718;28;20633;-74
2021/10/29 13:16:32;;;;;;;7.30;4.95;;;;;;;19.07;51.07;98682.00;5110869;28;20228;-74
2021/10/29 13:19:17;;;;;;;9.13;5.30;;;;;;;19.17;50.72;98669.06;5111822;28;20204;-73
2021/10/29 13:55:12;;;;;;;6.40;4.70;;;;;;;21.24;45.11;98658.50;5131566;27;20439;-73
2021/10/29 14:03:28;;;;;;;6.00;4.20;;;;;;;21.38;44.31;98668.69;5151060;27;20900;-74
2021/10/29 14:17:06;;;;;;;5.88;4.20;;;;;;;19.13;49.25;98659.47;5131461;27;20932;-71
2021/10/29 14:31:04;;;;;;;5.68;5.18;;;;;;;18.59;50.97;98650.72;5029587;28;20553;-73
2021/10/29 14:33:34;;;;;;;6.47;5.43;;;;;;;18.46;51.58;98656.66;5028439;28;20197;-74
2021/10/29 14:36:02;;;;;;;7.13;4.28;;;;;;;18.40;51.50;98651.84;5074820;28;20198;-74
2021/10/29 14:38:37;;;;;;;6.43;4.80;;;;;;;18.33;51.95;98652.47;5118818;27;20194;-73